createdAt,value
2022-08-18T00:04:35.452Z,100558.25
2022-08-18T00:09:34.778Z,100580.84
2022-08-18T00:14:32.399Z,100566.88
2022-08-18T00:19:46.989Z,100587.16
2022-08-18T00:24:47.766Z,100571.63
2022-08-18T00:29:45.965Z,100510.97
2022-08-18T00:34:43.647Z,100585.75
2022-08-18T00:39:43.507Z,100581.13
2022-08-18T00:44:45.156Z,100576.75
2022-08-18T00:49:45.295Z,100558.50
2022-08-18T00:54:46.546Z,100606.00
2022-08-18T00:59:48.389Z,100560.94
2022-08-18T01:04:53.085Z,100602.50
2022-08-18T01:09:51.229Z,100543.31
2022-08-18T01:14:48.372Z,100571.28
2022-08-18T01:20:06.430Z,100597.50
2022-08-18T01:25:26.217Z,100586.63
2022-08-18T01:30:25.035Z,100592.84
2022-08-18T01:35:26.261Z,100556.50
2022-08-18T01:41:22.597Z,100541.81
2022-08-18T01:45:42.272Z,100582.81
2022-08-18T01:50:40.840Z,100594.59
2022-08-18T01:55:43.877Z,100590.25
2022-08-18T02:00:42.176Z,100614.63
2022-08-18T02:05:43.850Z,100593.38
2022-08-18T02:10:44.250Z,100607.94
2022-08-18T02:15:42.028Z,100612.25
2022-08-18T02:20:40.660Z,100615.13
2022-08-18T02:25:41.086Z,100624.97
2022-08-18T02:30:42.203Z,100602.25
2022-08-18T02:35:43.442Z,100618.28
2022-08-18T02:40:40.400Z,100608.94
2022-08-18T02:45:38.888Z,100638.88
2022-08-18T02:50:44.279Z,100623.81
2022-08-18T02:55:41.077Z,100624.81
2022-08-18T03:00:40.196Z,100635.63
2022-08-18T03:05:38.583Z,100652.56
2022-08-18T03:10:36.946Z,100631.59
2022-08-18T03:15:33.794Z,100590.81
2022-08-18T03:20:31.684Z,100652.19
2022-08-18T03:25:28.706Z,100641.28
2022-08-18T03:30:25.536Z,100637.97
2022-08-18T03:35:22.655Z,100684.59
2022-08-18T03:40:20.435Z,100678.69
2022-08-18T03:45:18.204Z,100672.81
2022-08-18T03:50:15.166Z,100644.94
2022-08-18T03:55:12.128Z,100670.34
2022-08-18T04:00:16.569Z,100700.25
2022-08-18T04:05:14.032Z,100705.84
2022-08-18T04:10:20.864Z,100653.84
2022-08-18T04:21:09.846Z,100683.81
2022-08-18T04:26:19.131Z,100615.88
2022-08-18T04:31:22.997Z,100714.72
2022-08-18T04:36:20.995Z,100715.13
2022-08-18T04:41:54.518Z,100691.75
2022-08-18T04:47:00.161Z,100668.28
2022-08-18T04:52:40.548Z,100662.50
2022-08-18T04:57:39.427Z,100712.41
2022-08-18T05:02:43.517Z,100724.75
2022-08-18T05:07:53.646Z,100676.22
2022-08-18T05:12:54.136Z,100718.53
2022-08-18T05:18:03.585Z,100702.97
2022-08-18T05:24:05.575Z,100690.97
2022-08-18T05:29:17.817Z,100659.34
2022-08-18T05:34:20.021Z,100719.38
2022-08-18T05:39:25.268Z,100684.81
2022-08-18T05:44:27.194Z,100663.25
2022-08-18T05:49:27.127Z,100702.25
2022-08-18T05:54:56.926Z,100724.72
2022-08-18T06:00:36.074Z,100654.78
2022-08-18T06:05:56.940Z,100680.41
2022-08-18T06:11:06.047Z,100737.97
2022-08-18T12:02:30.968Z,100551.88
2022-08-18T12:07:37.043Z,100534.97
2022-08-18T12:12:39.099Z,100522.22
2022-08-18T12:17:36.875Z,100519.69
2022-08-18T12:22:35.337Z,100524.38
2022-08-18T12:27:43.306Z,100511.75
2022-08-18T12:32:49.738Z,100524.78
2022-08-18T12:37:59.563Z,100483.22
2022-08-18T12:43:10.546Z,100497.59
2022-08-18T12:48:18.519Z,100507.63
2022-08-18T12:53:58.037Z,100498.59
2022-08-18T12:58:53.287Z,100466.13
2022-08-18T13:04:12.232Z,100486.47
2022-08-18T13:09:16.619Z,100437.72
2022-08-18T13:15:00.977Z,100428.13
2022-08-18T13:20:07.896Z,100439.16
2022-08-18T13:25:08.319Z,100440.81
2022-08-18T13:30:16.766Z,100448.63
2022-08-18T13:35:29.972Z,100458.75
2022-08-18T13:40:45.654Z,100434.56
2022-08-18T13:45:46.448Z,100420.41
2022-08-18T13:51:02.592Z,100472.97
2022-08-18T13:56:00.329Z,100507.56
2022-08-18T14:01:22.752Z,100484.59
2022-08-18T14:06:46.883Z,100431.97
2022-08-18T14:11:54.183Z,100392.38
2022-08-18T14:16:51.398Z,100467.66
2022-08-18T14:22:31.198Z,100452.84
2022-08-18T14:27:57.533Z,100426.03
2022-08-18T14:32:55.088Z,100478.06
2022-08-18T14:37:58.028Z,100426.13
2022-08-18T14:42:58.013Z,100470.50
2022-08-18T14:47:57.748Z,100383.94
2022-08-18T14:53:02.029Z,100394.41
2022-08-18T14:58:35.679Z,100472.25
2022-08-18T15:03:43.726Z,100433.47
2022-08-18T15:08:45.384Z,100407.88
2022-08-18T15:14:04.974Z,100409.66
2022-08-18T15:19:03.286Z,100428.47
2022-08-18T15:24:40.230Z,100472.44
2022-08-18T15:29:41.455Z,100433.53
2022-08-18T15:34:47.115Z,100449.94
2022-08-18T15:39:51.893Z,100419.38
2022-08-18T15:45:16.772Z,100436.66
2022-08-18T15:50:21.972Z,100435.72
2022-08-18T15:55:28.089Z,100479.19
2022-08-18T16:00:27.521Z,100445.91
2022-08-18T16:05:32.774Z,100401.84
2022-08-18T16:11:03.427Z,100478.75
2022-08-18T16:16:13.261Z,100505.66
2022-08-18T16:21:12.704Z,100490.34
2022-08-18T16:26:37.619Z,100396.00
2022-08-18T16:31:41.392Z,100478.16
2022-08-18T16:36:41.138Z,100463.97
2022-08-18T16:42:17.178Z,100451.06
2022-08-18T16:48:02.621Z,100482.56
2022-08-18T16:53:19.885Z,100476.47
2022-08-18T16:58:40.303Z,100462.00
2022-08-18T17:10:17.669Z,100503.63
2022-08-18T17:15:22.086Z,100522.72
2022-08-18T17:20:25.545Z,100511.06
2022-08-18T17:25:33.308Z,100560.84
2022-08-18T17:36:36.513Z,100561.41
2022-08-18T17:41:59.965Z,100548.41
2022-08-18T17:52:40.473Z,100580.28
2022-08-18T17:58:09.271Z,100591.59
2022-08-18T18:03:13.442Z,100576.22
2022-08-18T18:08:11.415Z,100496.75
2022-08-18T18:13:28.455Z,100526.34
2022-08-18T18:18:43.720Z,100561.38
2022-08-18T18:23:45.631Z,100612.00
2022-08-18T18:28:45.526Z,100598.28
2022-08-18T18:33:48.122Z,100624.78
2022-08-18T18:39:16.125Z,100597.91
2022-08-18T18:44:21.294Z,100521.66
2022-08-18T18:49:28.287Z,100640.47
2022-08-18T18:54:49.614Z,100610.41
2022-08-18T19:00:03.861Z,100638.16
2022-08-18T19:05:10.662Z,100658.81
2022-08-18T19:10:17.685Z,100622.91
2022-08-18T19:15:15.967Z,100662.53
2022-08-18T19:20:20.164Z,100583.09
2022-08-18T19:25:25.113Z,100640.03
2022-08-18T19:30:50.482Z,100628.56
2022-08-18T19:35:58.985Z,100602.69
2022-08-18T19:41:04.933Z,100570.59
2022-08-18T19:46:23.051Z,100640.41
2022-08-18T19:51:29.002Z,100657.31
2022-08-18T19:56:52.252Z,100633.97
2022-08-18T20:02:01.652Z,100561.22
2022-08-18T20:07:37.612Z,100655.22
2022-08-18T20:12:53.157Z,100665.38
2022-08-18T20:18:22.530Z,100689.66
2022-08-18T20:23:56.637Z,100661.66
2022-08-18T20:29:34.120Z,100680.22
2022-08-18T20:34:34.083Z,100694.50
2022-08-18T20:39:41.826Z,100662.25
2022-08-18T20:44:57.176Z,100670.13
2022-08-18T20:50:20.965Z,100703.66
2022-08-18T20:55:33.987Z,100664.84
2022-08-18T21:00:36.439Z,100701.00
2022-08-18T21:05:44.374Z,100666.19
2022-08-18T21:10:50.175Z,100649.50
2022-08-18T21:15:48.815Z,100646.56
2022-08-18T21:20:47.490Z,100652.06
2022-08-18T21:25:52.171Z,100639.72
2022-08-18T21:31:43.009Z,100675.44
2022-08-18T21:36:31.760Z,100678.91
2022-08-18T21:41:31.981Z,100677.50
2022-08-18T21:46:36.494Z,100660.41
2022-08-18T21:51:44.420Z,100638.84
2022-08-18T21:57:19.675Z,100658.72
2022-08-18T22:02:23.446Z,100612.41
2022-08-18T22:07:34.704Z,100622.00
2022-08-18T22:12:52.746Z,100652.66
2022-08-18T22:17:54.447Z,100650.41
2022-08-18T22:23:09.459Z,100705.34
2022-08-18T22:28:07.577Z,100681.75
2022-08-18T22:33:05.272Z,100628.34
2022-08-18T22:38:02.329Z,100689.50
2022-08-18T22:42:59.358Z,100601.97
2022-08-18T22:47:57.696Z,100690.59
2022-08-18T22:52:56.761Z,100661.75
2022-08-18T22:57:56.306Z,100663.63
2022-08-18T23:02:54.814Z,100645.84
2022-08-18T23:07:53.100Z,100704.94
2022-08-18T23:12:50.109Z,100702.66
2022-08-18T23:17:48.474Z,100615.75
2022-08-18T23:22:46.785Z,100700.72
2022-08-18T23:27:44.803Z,100606.09
2022-08-18T23:32:43.196Z,100688.91
2022-08-18T23:37:41.082Z,100657.03
2022-08-18T23:42:41.328Z,100708.66
2022-08-18T23:47:41.564Z,100718.00
2022-08-18T23:52:39.706Z,100646.34
2022-08-18T23:57:48.926Z,100623.38
